sensor_id;sensor_type;location;lat;lon;timestamp;P1;durP1;ratioP1;P2;durP2;ratioP2
41293;SDS011;27037;52.010;4.446;2022-12-18T00:02:04;127.65;;;39.50;;
41293;SDS011;27037;52.010;4.446;2022-12-18T00:04:29;121.22;;;39.35;;
41293;SDS011;27037;52.010;4.446;2022-12-18T00:06:55;128.38;;;38.60;;
41293;SDS011;27037;52.010;4.446;2022-12-18T00:09:21;116.45;;;37.25;;
41293;SDS011;27037;52.010;4.446;2022-12-18T00:11:47;119.30;;;38.58;;
41293;SDS011;27037;52.010;4.446;2022-12-18T00:14:12;118.13;;;38.17;;
41293;SDS011;27037;52.010;4.446;2022-12-18T00:16:39;115.38;;;38.22;;
41293;SDS011;27037;52.010;4.446;2022-12-18T00:19:05;112.30;;;37.78;;
41293;SDS011;27037;52.010;4.446;2022-12-18T00:21:32;115.45;;;38.20;;
41293;SDS011;27037;52.010;4.446;2022-12-18T00:23:59;122.18;;;39.60;;
41293;SDS011;27037;52.010;4.446;2022-12-18T00:26:26;112.15;;;38.20;;
41293;SDS011;27037;52.010;4.446;2022-12-18T00:29:01;116.15;;;38.17;;
41293;SDS011;27037;52.010;4.446;2022-12-18T00:31:30;113.40;;;37.13;;
41293;SDS011;27037;52.010;4.446;2022-12-18T00:33:56;114.68;;;36.88;;
41293;SDS011;27037;52.010;4.446;2022-12-18T00:36:23;106.60;;;36.80;;
41293;SDS011;27037;52.010;4.446;2022-12-18T00:38:51;113.07;;;37.25;;
41293;SDS011;27037;52.010;4.446;2022-12-18T00:41:18;107.50;;;36.67;;
41293;SDS011;27037;52.010;4.446;2022-12-18T00:44:04;112.53;;;36.72;;
41293;SDS011;27037;52.010;4.446;2022-12-18T00:46:31;116.93;;;37.83;;
41293;SDS011;27037;52.010;4.446;2022-12-18T00:48:57;108.43;;;36.58;;
41293;SDS011;27037;52.010;4.446;2022-12-18T00:51:23;115.78;;;37.95;;
41293;SDS011;27037;52.010;4.446;2022-12-18T00:53:49;109.70;;;36.70;;
41293;SDS011;27037;52.010;4.446;2022-12-18T00:56:15;116.80;;;38.17;;
41293;SDS011;27037;52.010;4.446;2022-12-18T00:58:40;121.05;;;38.85;;
41293;SDS011;27037;52.010;4.446;2022-12-18T01:01:06;117.18;;;38.13;;
41293;SDS011;27037;52.010;4.446;2022-12-18T01:03:32;113.45;;;36.47;;
41293;SDS011;27037;52.010;4.446;2022-12-18T01:05:58;112.55;;;36.88;;
41293;SDS011;27037;52.010;4.446;2022-12-18T01:08:24;120.60;;;36.47;;
41293;SDS011;27037;52.010;4.446;2022-12-18T01:10:49;111.90;;;37.28;;
41293;SDS011;27037;52.010;4.446;2022-12-18T01:13:15;119.70;;;36.13;;
41293;SDS011;27037;52.010;4.446;2022-12-18T01:15:47;117.70;;;37.25;;
41293;SDS011;27037;52.010;4.446;2022-12-18T01:18:14;110.90;;;36.20;;
41293;SDS011;27037;52.010;4.446;2022-12-18T01:20:39;119.68;;;37.85;;
41293;SDS011;27037;52.010;4.446;2022-12-18T01:23:05;119.53;;;37.78;;
41293;SDS011;27037;52.010;4.446;2022-12-18T01:25:31;115.80;;;37.53;;
41293;SDS011;27037;52.010;4.446;2022-12-18T01:27:58;118.72;;;36.83;;
41293;SDS011;27037;52.010;4.446;2022-12-18T01:30:24;113.82;;;35.92;;
41293;SDS011;27037;52.010;4.446;2022-12-18T01:32:51;120.13;;;36.83;;
41293;SDS011;27037;52.010;4.446;2022-12-18T01:35:17;119.07;;;37.15;;
41293;SDS011;27037;52.010;4.446;2022-12-18T01:37:42;111.93;;;35.35;;
41293;SDS011;27037;52.010;4.446;2022-12-18T01:40:08;110.50;;;35.15;;
41293;SDS011;27037;52.010;4.446;2022-12-18T01:42:34;119.63;;;36.13;;
41293;SDS011;27037;52.010;4.446;2022-12-18T01:47:42;121.18;;;36.58;;
41293;SDS011;27037;52.010;4.446;2022-12-18T01:52:46;114.88;;;35.58;;
41293;SDS011;27037;52.010;4.446;2022-12-18T01:55:14;125.97;;;37.15;;
41293;SDS011;27037;52.010;4.446;2022-12-18T01:57:43;112.40;;;35.88;;
41293;SDS011;27037;52.010;4.446;2022-12-18T02:00:11;122.95;;;35.95;;
41293;SDS011;27037;52.010;4.446;2022-12-18T02:02:43;112.50;;;34.58;;
41293;SDS011;27037;52.010;4.446;2022-12-18T02:05:10;114.75;;;34.90;;
41293;SDS011;27037;52.010;4.446;2022-12-18T02:15:13;110.43;;;34.67;;
41293;SDS011;27037;52.010;4.446;2022-12-18T02:17:52;114.63;;;34.90;;
41293;SDS011;27037;52.010;4.446;2022-12-18T02:20:35;115.95;;;36.65;;
41293;SDS011;27037;52.010;4.446;2022-12-18T02:23:24;107.78;;;36.20;;
41293;SDS011;27037;52.010;4.446;2022-12-18T02:28:31;110.47;;;35.03;;
41293;SDS011;27037;52.010;4.446;2022-12-18T02:31:01;105.03;;;34.25;;
41293;SDS011;27037;52.010;4.446;2022-12-18T02:33:31;118.57;;;36.75;;
41293;SDS011;27037;52.010;4.446;2022-12-18T02:35:58;117.70;;;36.38;;
41293;SDS011;27037;52.010;4.446;2022-12-18T02:38:26;108.53;;;36.25;;
41293;SDS011;27037;52.010;4.446;2022-12-18T02:40:53;115.20;;;35.40;;
41293;SDS011;27037;52.010;4.446;2022-12-18T02:43:20;110.57;;;35.65;;
41293;SDS011;27037;52.010;4.446;2022-12-18T02:45:50;108.38;;;36.00;;
41293;SDS011;27037;52.010;4.446;2022-12-18T02:48:24;114.43;;;36.20;;
41293;SDS011;27037;52.010;4.446;2022-12-18T02:53:43;112.55;;;35.25;;
41293;SDS011;27037;52.010;4.446;2022-12-18T02:56:20;119.57;;;36.72;;
41293;SDS011;27037;52.010;4.446;2022-12-18T03:04:07;99.78;;;34.17;;
41293;SDS011;27037;52.010;4.446;2022-12-18T03:06:40;110.70;;;35.03;;
41293;SDS011;27037;52.010;4.446;2022-12-18T03:09:10;102.45;;;34.45;;
41293;SDS011;27037;52.010;4.446;2022-12-18T03:11:43;110.03;;;33.28;;
41293;SDS011;27037;52.010;4.446;2022-12-18T03:14:32;99.32;;;33.60;;
41293;SDS011;27037;52.010;4.446;2022-12-18T03:17:02;98.78;;;33.20;;
41293;SDS011;27037;52.010;4.446;2022-12-18T03:19:31;107.15;;;34.95;;
41293;SDS011;27037;52.010;4.446;2022-12-18T03:21:58;104.38;;;33.15;;
41293;SDS011;27037;52.010;4.446;2022-12-18T03:24:28;98.72;;;33.97;;
41293;SDS011;27037;52.010;4.446;2022-12-18T03:27:02;89.07;;;31.35;;
41293;SDS011;27037;52.010;4.446;2022-12-18T03:29:44;92.63;;;32.22;;
41293;SDS011;27037;52.010;4.446;2022-12-18T03:32:20;90.65;;;30.73;;
41293;SDS011;27037;52.010;4.446;2022-12-18T03:35:09;98.10;;;32.85;;
41293;SDS011;27037;52.010;4.446;2022-12-18T03:37:37;85.65;;;31.25;;
41293;SDS011;27037;52.010;4.446;2022-12-18T03:40:03;95.68;;;31.17;;
41293;SDS011;27037;52.010;4.446;2022-12-18T03:48:00;93.60;;;31.80;;
41293;SDS011;27037;52.010;4.446;2022-12-18T03:55:37;84.95;;;29.67;;
41293;SDS011;27037;52.010;4.446;2022-12-18T03:58:04;87.95;;;30.67;;
41293;SDS011;27037;52.010;4.446;2022-12-18T04:00:32;87.60;;;30.75;;
41293;SDS011;27037;52.010;4.446;2022-12-18T04:02:59;90.60;;;32.25;;
41293;SDS011;27037;52.010;4.446;2022-12-18T04:05:26;95.03;;;30.98;;
41293;SDS011;27037;52.010;4.446;2022-12-18T04:07:54;88.80;;;29.85;;
41293;SDS011;27037;52.010;4.446;2022-12-18T04:10:21;92.60;;;31.83;;
41293;SDS011;27037;52.010;4.446;2022-12-18T04:12:47;89.75;;;30.30;;
41293;SDS011;27037;52.010;4.446;2022-12-18T04:15:13;98.25;;;31.85;;
41293;SDS011;27037;52.010;4.446;2022-12-18T04:17:39;87.40;;;30.02;;
41293;SDS011;27037;52.010;4.446;2022-12-18T04:20:12;94.78;;;31.17;;
41293;SDS011;27037;52.010;4.446;2022-12-18T04:22:38;98.93;;;31.85;;
41293;SDS011;27037;52.010;4.446;2022-12-18T04:25:03;91.63;;;31.05;;
41293;SDS011;27037;52.010;4.446;2022-12-18T04:27:29;102.10;;;33.42;;
41293;SDS011;27037;52.010;4.446;2022-12-18T04:29:55;93.00;;;30.75;;
41293;SDS011;27037;52.010;4.446;2022-12-18T04:32:21;96.72;;;32.42;;
41293;SDS011;27037;52.010;4.446;2022-12-18T04:34:46;97.18;;;30.58;;
41293;SDS011;27037;52.010;4.446;2022-12-18T04:37:12;96.28;;;31.10;;
41293;SDS011;27037;52.010;4.446;2022-12-18T04:39:38;105.10;;;33.13;;
41293;SDS011;27037;52.010;4.446;2022-12-18T04:42:04;99.50;;;32.28;;
41293;SDS011;27037;52.010;4.446;2022-12-18T04:44:29;90.68;;;30.52;;
41293;SDS011;27037;52.010;4.446;2022-12-18T04:46:55;88.57;;;29.90;;
41293;SDS011;27037;52.010;4.446;2022-12-18T04:49:21;92.82;;;31.35;;
41293;SDS011;27037;52.010;4.446;2022-12-18T04:51:46;86.85;;;29.13;;
41293;SDS011;27037;52.010;4.446;2022-12-18T04:54:12;94.68;;;30.70;;
41293;SDS011;27037;52.010;4.446;2022-12-18T04:56:38;87.63;;;29.42;;
41293;SDS011;27037;52.010;4.446;2022-12-18T04:59:03;84.53;;;30.13;;
41293;SDS011;27037;52.010;4.446;2022-12-18T05:01:29;87.80;;;29.92;;
41293;SDS011;27037;52.010;4.446;2022-12-18T05:03:55;84.13;;;29.17;;
41293;SDS011;27037;52.010;4.446;2022-12-18T05:06:21;88.85;;;30.88;;
41293;SDS011;27037;52.010;4.446;2022-12-18T05:08:46;85.32;;;29.20;;
41293;SDS011;27037;52.010;4.446;2022-12-18T05:11:12;83.72;;;28.77;;
41293;SDS011;27037;52.010;4.446;2022-12-18T05:13:40;82.38;;;30.83;;
41293;SDS011;27037;52.010;4.446;2022-12-18T05:16:06;78.53;;;29.08;;
41293;SDS011;27037;52.010;4.446;2022-12-18T05:18:33;82.00;;;29.02;;
41293;SDS011;27037;52.010;4.446;2022-12-18T05:20:58;79.68;;;29.05;;
41293;SDS011;27037;52.010;4.446;2022-12-18T05:23:24;74.07;;;27.65;;
41293;SDS011;27037;52.010;4.446;2022-12-18T05:25:51;75.10;;;27.48;;
41293;SDS011;27037;52.010;4.446;2022-12-18T05:28:17;75.85;;;28.50;;
41293;SDS011;27037;52.010;4.446;2022-12-18T05:30:47;81.50;;;29.42;;
41293;SDS011;27037;52.010;4.446;2022-12-18T05:33:17;76.30;;;28.88;;
41293;SDS011;27037;52.010;4.446;2022-12-18T05:35:43;77.70;;;28.10;;
41293;SDS011;27037;52.010;4.446;2022-12-18T05:38:09;80.60;;;29.05;;
41293;SDS011;27037;52.010;4.446;2022-12-18T05:40:35;70.47;;;27.88;;
41293;SDS011;27037;52.010;4.446;2022-12-18T05:43:01;71.82;;;27.98;;
41293;SDS011;27037;52.010;4.446;2022-12-18T05:45:27;77.10;;;28.23;;
41293;SDS011;27037;52.010;4.446;2022-12-18T05:47:53;74.72;;;28.83;;
41293;SDS011;27037;52.010;4.446;2022-12-18T05:50:18;78.80;;;29.20;;
41293;SDS011;27037;52.010;4.446;2022-12-18T05:52:44;74.80;;;26.88;;
41293;SDS011;27037;52.010;4.446;2022-12-18T05:55:11;81.05;;;28.85;;
41293;SDS011;27037;52.010;4.446;2022-12-18T05:57:36;74.45;;;27.67;;
41293;SDS011;27037;52.010;4.446;2022-12-18T06:00:02;71.25;;;28.23;;
41293;SDS011;27037;52.010;4.446;2022-12-18T06:02:28;77.47;;;28.17;;
41293;SDS011;27037;52.010;4.446;2022-12-18T06:04:54;77.40;;;29.83;;
41293;SDS011;27037;52.010;4.446;2022-12-18T06:07:20;80.32;;;28.90;;
41293;SDS011;27037;52.010;4.446;2022-12-18T06:09:45;69.65;;;27.27;;
41293;SDS011;27037;52.010;4.446;2022-12-18T06:12:11;77.18;;;27.65;;
41293;SDS011;27037;52.010;4.446;2022-12-18T06:14:36;75.90;;;28.45;;
41293;SDS011;27037;52.010;4.446;2022-12-18T06:17:02;82.70;;;29.13;;
41293;SDS011;27037;52.010;4.446;2022-12-18T06:19:27;73.65;;;27.85;;
41293;SDS011;27037;52.010;4.446;2022-12-18T06:21:53;80.88;;;29.17;;
41293;SDS011;27037;52.010;4.446;2022-12-18T06:24:19;75.72;;;28.90;;
41293;SDS011;27037;52.010;4.446;2022-12-18T06:26:45;74.80;;;27.90;;
41293;SDS011;27037;52.010;4.446;2022-12-18T06:29:10;71.32;;;28.05;;
41293;SDS011;27037;52.010;4.446;2022-12-18T06:31:36;74.72;;;28.25;;
41293;SDS011;27037;52.010;4.446;2022-12-18T06:34:03;77.85;;;28.02;;
41293;SDS011;27037;52.010;4.446;2022-12-18T06:36:29;73.95;;;28.52;;
41293;SDS011;27037;52.010;4.446;2022-12-18T06:38:56;75.45;;;28.08;;
41293;SDS011;27037;52.010;4.446;2022-12-18T06:41:22;71.80;;;28.20;;
41293;SDS011;27037;52.010;4.446;2022-12-18T06:43:47;66.13;;;25.63;;
41293;SDS011;27037;52.010;4.446;2022-12-18T06:46:13;73.18;;;25.85;;
41293;SDS011;27037;52.010;4.446;2022-12-18T06:48:39;73.00;;;26.42;;
41293;SDS011;27037;52.010;4.446;2022-12-18T06:51:05;61.85;;;24.45;;
41293;SDS011;27037;52.010;4.446;2022-12-18T06:53:31;63.10;;;25.98;;
41293;SDS011;27037;52.010;4.446;2022-12-18T06:56:01;62.55;;;25.70;;
41293;SDS011;27037;52.010;4.446;2022-12-18T06:58:28;61.53;;;24.17;;
41293;SDS011;27037;52.010;4.446;2022-12-18T07:00:58;65.35;;;24.40;;
41293;SDS011;27037;52.010;4.446;2022-12-18T07:03:27;65.10;;;24.92;;
41293;SDS011;27037;52.010;4.446;2022-12-18T07:05:52;62.83;;;25.80;;
41293;SDS011;27037;52.010;4.446;2022-12-18T07:08:18;59.97;;;25.73;;
41293;SDS011;27037;52.010;4.446;2022-12-18T07:10:44;60.28;;;24.48;;
41293;SDS011;27037;52.010;4.446;2022-12-18T07:13:09;55.88;;;22.92;;
41293;SDS011;27037;52.010;4.446;2022-12-18T07:15:35;58.05;;;23.52;;
41293;SDS011;27037;52.010;4.446;2022-12-18T07:18:01;60.72;;;23.67;;
41293;SDS011;27037;52.010;4.446;2022-12-18T07:20:26;58.88;;;23.08;;
41293;SDS011;27037;52.010;4.446;2022-12-18T07:22:52;57.53;;;23.02;;
41293;SDS011;27037;52.010;4.446;2022-12-18T07:25:18;61.47;;;23.50;;
41293;SDS011;27037;52.010;4.446;2022-12-18T07:27:43;53.28;;;21.73;;
41293;SDS011;27037;52.010;4.446;2022-12-18T07:30:09;59.33;;;23.15;;
41293;SDS011;27037;52.010;4.446;2022-12-18T07:32:35;57.42;;;22.25;;
41293;SDS011;27037;52.010;4.446;2022-12-18T07:35:00;51.05;;;21.98;;
41293;SDS011;27037;52.010;4.446;2022-12-18T07:37:26;49.22;;;21.08;;
41293;SDS011;27037;52.010;4.446;2022-12-18T07:39:52;56.45;;;21.60;;
41293;SDS011;27037;52.010;4.446;2022-12-18T07:42:17;50.95;;;22.27;;
41293;SDS011;27037;52.010;4.446;2022-12-18T07:44:55;51.85;;;21.35;;
41293;SDS011;27037;52.010;4.446;2022-12-18T07:47:21;46.30;;;20.75;;
41293;SDS011;27037;52.010;4.446;2022-12-18T07:49:47;50.22;;;21.83;;
41293;SDS011;27037;52.010;4.446;2022-12-18T07:52:12;52.10;;;21.40;;
41293;SDS011;27037;52.010;4.446;2022-12-18T07:54:38;49.83;;;21.08;;
41293;SDS011;27037;52.010;4.446;2022-12-18T07:57:05;51.40;;;21.23;;
41293;SDS011;27037;52.010;4.446;2022-12-18T07:59:31;47.53;;;21.88;;
41293;SDS011;27037;52.010;4.446;2022-12-18T08:01:56;46.72;;;20.92;;
41293;SDS011;27037;52.010;4.446;2022-12-18T08:04:23;49.50;;;21.70;;
41293;SDS011;27037;52.010;4.446;2022-12-18T08:06:49;46.95;;;19.60;;
41293;SDS011;27037;52.010;4.446;2022-12-18T08:09:15;47.60;;;21.00;;
41293;SDS011;27037;52.010;4.446;2022-12-18T08:11:40;49.22;;;20.88;;
41293;SDS011;27037;52.010;4.446;2022-12-18T08:14:06;44.97;;;20.27;;
41293;SDS011;27037;52.010;4.446;2022-12-18T08:16:32;46.75;;;20.00;;
41293;SDS011;27037;52.010;4.446;2022-12-18T08:18:58;49.95;;;21.27;;
41293;SDS011;27037;52.010;4.446;2022-12-18T08:21:25;46.88;;;20.83;;
41293;SDS011;27037;52.010;4.446;2022-12-18T08:23:53;52.45;;;20.92;;
41293;SDS011;27037;52.010;4.446;2022-12-18T08:26:19;45.97;;;20.08;;
41293;SDS011;27037;52.010;4.446;2022-12-18T08:28:46;48.13;;;20.17;;
41293;SDS011;27037;52.010;4.446;2022-12-18T08:31:11;46.60;;;19.48;;
41293;SDS011;27037;52.010;4.446;2022-12-18T08:33:38;46.47;;;20.30;;
41293;SDS011;27037;52.010;4.446;2022-12-18T08:36:04;46.03;;;20.70;;
41293;SDS011;27037;52.010;4.446;2022-12-18T08:38:31;47.33;;;20.17;;
41293;SDS011;27037;52.010;4.446;2022-12-18T08:40:58;46.55;;;20.15;;
41293;SDS011;27037;52.010;4.446;2022-12-18T08:43:25;43.13;;;19.98;;
41293;SDS011;27037;52.010;4.446;2022-12-18T08:46:09;39.67;;;19.20;;
41293;SDS011;27037;52.010;4.446;2022-12-18T08:48:34;45.03;;;19.80;;
41293;SDS011;27037;52.010;4.446;2022-12-18T08:51:00;44.00;;;20.02;;
41293;SDS011;27037;52.010;4.446;2022-12-18T08:53:26;45.78;;;19.95;;
41293;SDS011;27037;52.010;4.446;2022-12-18T08:55:52;45.40;;;20.42;;
41293;SDS011;27037;52.010;4.446;2022-12-18T08:58:18;44.85;;;19.63;;
41293;SDS011;27037;52.010;4.446;2022-12-18T09:00:44;47.22;;;20.52;;
41293;SDS011;27037;52.010;4.446;2022-12-18T09:03:13;46.30;;;20.20;;
41293;SDS011;27037;52.010;4.446;2022-12-18T09:05:40;45.92;;;20.50;;
41293;SDS011;27037;52.010;4.446;2022-12-18T09:08:06;43.05;;;20.42;;
41293;SDS011;27037;52.010;4.446;2022-12-18T09:10:32;45.10;;;20.05;;
41293;SDS011;27037;52.010;4.446;2022-12-18T09:12:58;43.75;;;19.63;;
41293;SDS011;27037;52.010;4.446;2022-12-18T09:15:25;44.75;;;20.17;;
41293;SDS011;27037;52.010;4.446;2022-12-18T09:17:51;43.85;;;19.20;;
41293;SDS011;27037;52.010;4.446;2022-12-18T09:20:18;43.25;;;20.13;;
41293;SDS011;27037;52.010;4.446;2022-12-18T09:22:44;43.28;;;20.15;;
41293;SDS011;27037;52.010;4.446;2022-12-18T09:25:09;45.65;;;20.35;;
41293;SDS011;27037;52.010;4.446;2022-12-18T09:27:35;45.45;;;20.00;;
41293;SDS011;27037;52.010;4.446;2022-12-18T09:30:01;38.65;;;19.13;;
41293;SDS011;27037;52.010;4.446;2022-12-18T09:32:27;41.80;;;19.17;;
41293;SDS011;27037;52.010;4.446;2022-12-18T09:34:53;38.22;;;18.98;;
41293;SDS011;27037;52.010;4.446;2022-12-18T09:37:18;42.40;;;19.67;;
41293;SDS011;27037;52.010;4.446;2022-12-18T09:39:44;45.72;;;18.95;;
41293;SDS011;27037;52.010;4.446;2022-12-18T09:42:12;44.97;;;19.90;;
41293;SDS011;27037;52.010;4.446;2022-12-18T09:44:50;41.15;;;19.65;;
41293;SDS011;27037;52.010;4.446;2022-12-18T09:47:20;43.33;;;19.85;;
41293;SDS011;27037;52.010;4.446;2022-12-18T09:50:02;41.25;;;19.42;;
41293;SDS011;27037;52.010;4.446;2022-12-18T09:57:42;44.03;;;20.02;;
41293;SDS011;27037;52.010;4.446;2022-12-18T10:00:16;43.50;;;19.77;;
41293;SDS011;27037;52.010;4.446;2022-12-18T10:02:44;42.80;;;19.52;;
41293;SDS011;27037;52.010;4.446;2022-12-18T10:05:15;41.65;;;20.05;;
41293;SDS011;27037;52.010;4.446;2022-12-18T10:10:27;42.67;;;19.75;;
41293;SDS011;27037;52.010;4.446;2022-12-18T10:15:45;41.33;;;19.65;;
41293;SDS011;27037;52.010;4.446;2022-12-18T10:21:10;43.28;;;19.38;;
41293;SDS011;27037;52.010;4.446;2022-12-18T10:26:09;41.50;;;19.48;;
41293;SDS011;27037;52.010;4.446;2022-12-18T10:28:37;42.22;;;19.52;;
41293;SDS011;27037;52.010;4.446;2022-12-18T10:31:05;41.20;;;19.63;;
41293;SDS011;27037;52.010;4.446;2022-12-18T10:33:33;40.63;;;19.70;;
41293;SDS011;27037;52.010;4.446;2022-12-18T10:35:59;39.85;;;18.92;;
41293;SDS011;27037;52.010;4.446;2022-12-18T10:38:29;39.80;;;19.38;;
41293;SDS011;27037;52.010;4.446;2022-12-18T10:46:02;43.42;;;19.90;;
41293;SDS011;27037;52.010;4.446;2022-12-18T10:48:31;38.53;;;19.02;;
41293;SDS011;27037;52.010;4.446;2022-12-18T10:50:58;39.20;;;19.67;;
41293;SDS011;27037;52.010;4.446;2022-12-18T10:53:26;40.63;;;19.35;;
41293;SDS011;27037;52.010;4.446;2022-12-18T10:55:54;39.65;;;19.90;;
41293;SDS011;27037;52.010;4.446;2022-12-18T10:58:24;40.03;;;19.23;;
41293;SDS011;27037;52.010;4.446;2022-12-18T11:03:39;41.80;;;20.17;;
41293;SDS011;27037;52.010;4.446;2022-12-18T11:06:10;37.30;;;17.92;;
41293;SDS011;27037;52.010;4.446;2022-12-18T11:08:43;39.53;;;19.20;;
41293;SDS011;27037;52.010;4.446;2022-12-18T11:11:22;43.08;;;20.00;;
41293;SDS011;27037;52.010;4.446;2022-12-18T11:16:26;40.58;;;19.23;;
41293;SDS011;27037;52.010;4.446;2022-12-18T11:18:52;38.60;;;19.05;;
41293;SDS011;27037;52.010;4.446;2022-12-18T11:21:18;43.47;;;19.92;;
41293;SDS011;27037;52.010;4.446;2022-12-18T11:23:46;37.80;;;18.65;;
41293;SDS011;27037;52.010;4.446;2022-12-18T11:26:15;38.85;;;19.50;;
41293;SDS011;27037;52.010;4.446;2022-12-18T11:28:49;36.30;;;18.35;;
41293;SDS011;27037;52.010;4.446;2022-12-18T11:31:26;37.47;;;18.65;;
41293;SDS011;27037;52.010;4.446;2022-12-18T11:36:28;38.28;;;19.60;;
41293;SDS011;27037;52.010;4.446;2022-12-18T11:39:00;39.17;;;19.85;;
41293;SDS011;27037;52.010;4.446;2022-12-18T11:41:41;43.55;;;19.35;;
41293;SDS011;27037;52.010;4.446;2022-12-18T11:44:43;38.28;;;18.77;;
41293;SDS011;27037;52.010;4.446;2022-12-18T11:53:02;39.03;;;19.58;;
41293;SDS011;27037;52.010;4.446;2022-12-18T12:12:10;33.95;;;18.15;;
41293;SDS011;27037;52.010;4.446;2022-12-18T12:21:02;39.55;;;18.40;;
41293;SDS011;27037;52.010;4.446;2022-12-18T12:23:44;37.55;;;19.27;;
41293;SDS011;27037;52.010;4.446;2022-12-18T12:26:34;38.40;;;19.17;;
41293;SDS011;27037;52.010;4.446;2022-12-18T12:31:58;38.17;;;19.08;;
41293;SDS011;27037;52.010;4.446;2022-12-18T12:34:54;37.35;;;18.55;;
41293;SDS011;27037;52.010;4.446;2022-12-18T12:39:59;37.50;;;18.58;;
41293;SDS011;27037;52.010;4.446;2022-12-18T12:45:28;37.45;;;17.70;;
41293;SDS011;27037;52.010;4.446;2022-12-18T12:47:59;36.50;;;19.10;;
41293;SDS011;27037;52.010;4.446;2022-12-18T12:50:30;41.40;;;19.80;;
41293;SDS011;27037;52.010;4.446;2022-12-18T12:52:59;36.50;;;18.90;;
41293;SDS011;27037;52.010;4.446;2022-12-18T12:55:31;38.42;;;18.00;;
41293;SDS011;27037;52.010;4.446;2022-12-18T13:00:36;36.63;;;19.40;;
41293;SDS011;27037;52.010;4.446;2022-12-18T13:03:28;39.80;;;19.35;;
41293;SDS011;27037;52.010;4.446;2022-12-18T13:14:30;37.35;;;18.15;;
41293;SDS011;27037;52.010;4.446;2022-12-18T13:19:44;38.03;;;19.13;;
41293;SDS011;27037;52.010;4.446;2022-12-18T13:22:23;36.47;;;18.52;;
41293;SDS011;27037;52.010;4.446;2022-12-18T13:25:00;36.78;;;18.67;;
41293;SDS011;27037;52.010;4.446;2022-12-18T13:27:46;33.22;;;17.83;;
41293;SDS011;27037;52.010;4.446;2022-12-18T13:38:21;35.95;;;18.98;;
41293;SDS011;27037;52.010;4.446;2022-12-18T13:48:24;36.00;;;17.88;;
41293;SDS011;27037;52.010;4.446;2022-12-18T13:51:02;35.65;;;18.73;;
41293;SDS011;27037;52.010;4.446;2022-12-18T13:53:34;37.15;;;19.30;;
41293;SDS011;27037;52.010;4.446;2022-12-18T13:56:04;38.00;;;19.27;;
41293;SDS011;27037;52.010;4.446;2022-12-18T13:58:31;36.38;;;19.23;;
41293;SDS011;27037;52.010;4.446;2022-12-18T14:00:56;36.35;;;18.67;;
41293;SDS011;27037;52.010;4.446;2022-12-18T14:03:25;33.53;;;17.42;;
41293;SDS011;27037;52.010;4.446;2022-12-18T14:05:53;37.28;;;18.60;;
41293;SDS011;27037;52.010;4.446;2022-12-18T14:08:21;37.03;;;19.33;;
41293;SDS011;27037;52.010;4.446;2022-12-18T14:10:47;37.95;;;18.92;;
41293;SDS011;27037;52.010;4.446;2022-12-18T14:13:32;35.97;;;18.10;;
41293;SDS011;27037;52.010;4.446;2022-12-18T14:16:01;34.10;;;18.25;;
41293;SDS011;27037;52.010;4.446;2022-12-18T14:18:36;34.97;;;18.35;;
41293;SDS011;27037;52.010;4.446;2022-12-18T14:21:28;36.45;;;18.35;;
41293;SDS011;27037;52.010;4.446;2022-12-18T14:24:15;41.35;;;19.95;;
41293;SDS011;27037;52.010;4.446;2022-12-18T14:26:41;39.35;;;19.08;;
41293;SDS011;27037;52.010;4.446;2022-12-18T14:29:19;135.98;;;70.97;;
41293;SDS011;27037;52.010;4.446;2022-12-18T14:31:44;63.88;;;32.33;;
41293;SDS011;27037;52.010;4.446;2022-12-18T14:34:16;40.85;;;21.38;;
41293;SDS011;27037;52.010;4.446;2022-12-18T14:36:51;57.80;;;27.77;;
41293;SDS011;27037;52.010;4.446;2022-12-18T14:39:17;48.90;;;22.75;;
41293;SDS011;27037;52.010;4.446;2022-12-18T14:41:43;40.22;;;21.23;;
41293;SDS011;27037;52.010;4.446;2022-12-18T14:44:11;38.05;;;19.50;;
41293;SDS011;27037;52.010;4.446;2022-12-18T14:46:47;37.92;;;19.25;;
41293;SDS011;27037;52.010;4.446;2022-12-18T14:49:33;38.25;;;19.60;;
41293;SDS011;27037;52.010;4.446;2022-12-18T14:54:32;38.97;;;19.70;;
41293;SDS011;27037;52.010;4.446;2022-12-18T14:59:44;30.13;;;14.90;;
41293;SDS011;27037;52.010;4.446;2022-12-18T15:05:01;40.67;;;19.85;;
41293;SDS011;27037;52.010;4.446;2022-12-18T15:07:33;37.42;;;19.25;;
41293;SDS011;27037;52.010;4.446;2022-12-18T15:10:12;37.50;;;19.45;;
41293;SDS011;27037;52.010;4.446;2022-12-18T15:12:45;38.72;;;19.88;;
41293;SDS011;27037;52.010;4.446;2022-12-18T15:18:19;37.10;;;18.90;;
41293;SDS011;27037;52.010;4.446;2022-12-18T15:20:53;43.58;;;21.05;;
41293;SDS011;27037;52.010;4.446;2022-12-18T15:23:49;37.47;;;19.95;;
41293;SDS011;27037;52.010;4.446;2022-12-18T15:26:17;180.27;;;90.20;;
41293;SDS011;27037;52.010;4.446;2022-12-18T15:28:49;95.90;;;48.90;;
41293;SDS011;27037;52.010;4.446;2022-12-18T15:33:42;37.63;;;20.02;;
41293;SDS011;27037;52.010;4.446;2022-12-18T15:36:16;39.35;;;19.08;;
41293;SDS011;27037;52.010;4.446;2022-12-18T15:38:45;39.67;;;20.75;;
41293;SDS011;27037;52.010;4.446;2022-12-18T15:41:16;40.47;;;19.25;;
41293;SDS011;27037;52.010;4.446;2022-12-18T15:43:43;39.35;;;19.38;;
41293;SDS011;27037;52.010;4.446;2022-12-18T15:46:17;39.28;;;19.67;;
41293;SDS011;27037;52.010;4.446;2022-12-18T15:48:45;37.13;;;18.93;;
41293;SDS011;27037;52.010;4.446;2022-12-18T15:51:49;36.03;;;18.50;;
41293;SDS011;27037;52.010;4.446;2022-12-18T15:54:10;36.10;;;18.15;;
41293;SDS011;27037;52.010;4.446;2022-12-18T15:56:38;37.03;;;18.80;;
41293;SDS011;27037;52.010;4.446;2022-12-18T15:59:23;38.13;;;19.02;;
41293;SDS011;27037;52.010;4.446;2022-12-18T16:01:49;37.13;;;18.70;;
41293;SDS011;27037;52.010;4.446;2022-12-18T16:04:18;33.95;;;18.42;;
41293;SDS011;27037;52.010;4.446;2022-12-18T16:06:45;34.92;;;18.23;;
41293;SDS011;27037;52.010;4.446;2022-12-18T16:09:11;34.55;;;17.83;;
41293;SDS011;27037;52.010;4.446;2022-12-18T16:11:37;37.97;;;18.67;;
41293;SDS011;27037;52.010;4.446;2022-12-18T16:14:19;38.10;;;18.30;;
41293;SDS011;27037;52.010;4.446;2022-12-18T16:16:45;39.33;;;18.33;;
41293;SDS011;27037;52.010;4.446;2022-12-18T16:19:12;36.65;;;18.70;;
41293;SDS011;27037;52.010;4.446;2022-12-18T16:21:38;43.05;;;19.60;;
41293;SDS011;27037;52.010;4.446;2022-12-18T16:24:04;44.35;;;22.92;;
41293;SDS011;27037;52.010;4.446;2022-12-18T16:26:33;53.15;;;26.65;;
41293;SDS011;27037;52.010;4.446;2022-12-18T16:28:59;39.22;;;18.88;;
41293;SDS011;27037;52.010;4.446;2022-12-18T16:31:24;34.85;;;18.05;;
41293;SDS011;27037;52.010;4.446;2022-12-18T16:34:08;38.70;;;19.83;;
41293;SDS011;27037;52.010;4.446;2022-12-18T16:36:55;35.35;;;18.05;;
41293;SDS011;27037;52.010;4.446;2022-12-18T16:39:22;36.38;;;18.10;;
41293;SDS011;27037;52.010;4.446;2022-12-18T16:41:47;37.22;;;19.45;;
41293;SDS011;27037;52.010;4.446;2022-12-18T16:44:14;39.92;;;19.80;;
41293;SDS011;27037;52.010;4.446;2022-12-18T16:46:40;39.63;;;19.73;;
41293;SDS011;27037;52.010;4.446;2022-12-18T16:49:10;36.08;;;19.70;;
41293;SDS011;27037;52.010;4.446;2022-12-18T16:51:37;40.05;;;20.58;;
41293;SDS011;27037;52.010;4.446;2022-12-18T16:54:03;34.05;;;19.05;;